createdAt,value
2023-02-03T00:02:52.603Z,101672.59
2023-02-03T00:06:32.125Z,101671.87
2023-02-03T00:09:53.035Z,101671.98
2023-02-03T00:13:09.326Z,101670.25
2023-02-03T00:16:44.044Z,101663.91
2023-02-03T00:20:12.900Z,101659.95
2023-02-03T00:23:52.998Z,101660.20
2023-02-03T00:27:10.025Z,101659.00
2023-02-03T00:30:18.118Z,101652.36
2023-02-03T00:33:40.482Z,101649.62
2023-02-03T00:37:05.188Z,101638.49
2023-02-03T00:40:31.420Z,101640.45
2023-02-03T00:43:50.707Z,101628.81
2023-02-03T00:47:15.904Z,101622.08
2023-02-03T00:50:55.689Z,101620.25
2023-02-03T00:54:03.341Z,101609.81
2023-02-03T00:57:35.216Z,101600.23
2023-02-03T01:01:15.916Z,101587.00
2023-02-03T01:04:43.995Z,101581.90
2023-02-03T01:08:06.131Z,101576.15
2023-02-03T01:10:53.910Z,101576.23
2023-02-03T01:14:41.786Z,101575.79
2023-02-03T01:17:58.549Z,101562.98
2023-02-03T01:20:45.400Z,101549.21
2023-02-03T01:23:52.004Z,101534.53
2023-02-03T01:27:07.451Z,101525.23
2023-02-03T01:30:15.606Z,101518.12
2023-02-03T01:33:17.223Z,101513.86
2023-02-03T01:36:05.888Z,101510.83
2023-02-03T01:39:46.090Z,101502.48
2023-02-03T01:43:20.191Z,101497.41
2023-02-03T01:47:11.392Z,101501.73
2023-02-03T01:50:52.217Z,101504.51
2023-02-03T01:54:31.319Z,101511.61
2023-02-03T01:57:40.021Z,101530.27
2023-02-03T02:00:47.782Z,101519.01
2023-02-03T02:03:50.405Z,101505.85
2023-02-03T02:06:48.225Z,101497.53
2023-02-03T02:09:35.602Z,101499.81
2023-02-03T02:12:50.469Z,101496.03
2023-02-03T02:16:35.549Z,101496.30
2023-02-03T02:20:39.498Z,101487.83
2023-02-03T02:24:10.425Z,101467.90
2023-02-03T02:27:33.074Z,101463.15
2023-02-03T02:30:53.708Z,101445.31
2023-02-03T02:34:45.905Z,101429.23
2023-02-03T02:38:00.036Z,101411.31
2023-02-03T02:41:39.463Z,101398.25
2023-02-03T02:45:30.401Z,101382.17
2023-02-03T02:49:04.293Z,101377.70
2023-02-03T02:52:44.325Z,101374.79
2023-02-03T02:56:11.604Z,101370.41
2023-02-03T02:59:45.691Z,101373.27
2023-02-03T03:03:35.136Z,101371.24
2023-02-03T03:07:12.666Z,101371.61
2023-02-03T03:10:33.883Z,101365.09
2023-02-03T03:14:10.367Z,101364.42
2023-02-03T03:17:42.455Z,101357.69
2023-02-03T03:21:07.444Z,101351.23
2023-02-03T03:24:29.501Z,101339.65
2023-02-03T03:28:11.146Z,101334.20
2023-02-03T03:31:16.002Z,101331.42
2023-02-03T03:34:55.091Z,101326.99
2023-02-03T03:38:31.884Z,101321.48
2023-02-03T03:42:08.833Z,101319.16
2023-02-03T03:45:24.211Z,101307.64
2023-02-03T03:48:54.278Z,101307.05
2023-02-03T03:52:47.565Z,101296.45
2023-02-03T03:56:18.700Z,101285.92
2023-02-03T03:59:43.133Z,101275.92
2023-02-03T04:02:55.613Z,101270.84
2023-02-03T04:06:22.302Z,101261.80
2023-02-03T04:10:06.627Z,101251.20
2023-02-03T04:13:20.746Z,101242.59
2023-02-03T04:17:02.177Z,101234.02
2023-02-03T04:20:52.418Z,101228.64
2023-02-03T04:24:41.604Z,101217.94
2023-02-03T04:28:08.421Z,101214.05
2023-02-03T04:31:57.550Z,101216.95
2023-02-03T04:35:46.589Z,101212.18
2023-02-03T04:39:28.843Z,101200.77
2023-02-03T04:43:03.053Z,101199.52
2023-02-03T04:46:52.089Z,101185.20
2023-02-03T04:50:29.768Z,101174.33
2023-02-03T04:54:11.202Z,101165.59
2023-02-03T04:57:53.001Z,101154.34
2023-02-03T05:01:32.127Z,101154.39
2023-02-03T05:05:20.060Z,101157.66
2023-02-03T05:09:09.881Z,101149.02
2023-02-03T05:12:51.509Z,101141.03
2023-02-03T05:16:33.315Z,101125.55
2023-02-03T05:19:50.772Z,101110.70
2023-02-03T05:23:34.877Z,101103.79
2023-02-03T05:26:56.797Z,101099.67
2023-02-03T05:30:37.487Z,101094.27
2023-02-03T05:34:14.425Z,101085.23
2023-02-03T05:37:06.074Z,101077.42
2023-02-03T05:40:29.018Z,101072.38
2023-02-03T05:43:54.731Z,101060.36
2023-02-03T05:47:01.702Z,101045.57
2023-02-03T05:50:42.898Z,101037.71
2023-02-03T05:54:13.037Z,101040.80
2023-02-03T05:58:02.975Z,101035.05
2023-02-03T06:01:17.154Z,101032.23
2023-02-03T06:04:49.884Z,101025.33
2023-02-03T06:08:28.453Z,101017.52
2023-02-03T06:11:57.024Z,101009.05
2023-02-03T06:15:07.191Z,101010.30
2023-02-03T06:18:55.910Z,101008.20
2023-02-03T06:22:27.508Z,101006.31
2023-02-03T06:25:32.111Z,100994.73
2023-02-03T06:29:13.167Z,100986.50
2023-02-03T06:32:56.054Z,100975.52
2023-02-03T06:36:34.722Z,100964.39
2023-02-03T06:40:14.917Z,100947.31
2023-02-03T06:43:27.885Z,100939.60
2023-02-03T06:47:05.892Z,100929.98
2023-02-03T06:50:40.208Z,100918.67
2023-02-03T06:54:04.986Z,100906.86
2023-02-03T06:57:32.573Z,100894.67
2023-02-03T07:00:54.721Z,100880.92
2023-02-03T07:04:34.591Z,100871.41
2023-02-03T07:08:14.820Z,100870.02
2023-02-03T07:11:26.582Z,100860.25
2023-02-03T07:14:46.053Z,100841.95
2023-02-03T07:22:17.636Z,100808.63
2023-02-03T07:25:31.225Z,100798.15
2023-02-03T07:28:55.214Z,100793.27
2023-02-03T07:32:27.230Z,100785.42
2023-02-03T07:35:52.081Z,100774.51
2023-02-03T07:38:55.695Z,100759.34
2023-02-03T07:42:31.889Z,100756.00
2023-02-03T07:45:48.739Z,100748.28
2023-02-03T07:49:07.982Z,100743.38
2023-02-03T07:52:48.408Z,100731.58
2023-02-03T07:56:28.461Z,100729.20
2023-02-03T07:59:55.816Z,100713.80
2023-02-03T08:03:28.111Z,100694.24
2023-02-03T08:07:00.722Z,100679.98
2023-02-03T08:10:49.748Z,100666.70
2023-02-03T08:14:17.181Z,100655.14
2023-02-03T08:17:29.823Z,100642.25
2023-02-03T08:21:10.725Z,100632.82
2023-02-03T08:24:46.767Z,100627.25
2023-02-03T08:28:21.939Z,100627.41
2023-02-03T08:31:59.489Z,100611.33
2023-02-03T08:35:12.679Z,100608.34
2023-02-03T08:38:24.828Z,100597.39
2023-02-03T08:42:06.338Z,100588.42
2023-02-03T08:45:49.889Z,100571.41
2023-02-03T08:49:25.532Z,100554.82
2023-02-03T08:53:07.316Z,100540.41
2023-02-03T08:56:57.309Z,100531.86
2023-02-03T09:00:27.136Z,100521.55
2023-02-03T09:04:10.540Z,100513.21
2023-02-03T09:07:04.483Z,100502.69
2023-02-03T09:10:19.688Z,100492.78
2023-02-03T09:13:55.416Z,100479.05
2023-02-03T09:16:58.382Z,100474.36
2023-02-03T09:20:02.561Z,100466.56
2023-02-03T09:24:21.229Z,100461.41
2023-02-03T09:27:11.845Z,100451.27
2023-02-03T09:31:04.128Z,100436.60
2023-02-03T09:34:36.583Z,100416.17
2023-02-03T09:38:25.911Z,100395.41
2023-02-03T09:42:39.811Z,100391.14
2023-02-03T09:46:26.871Z,100373.59
2023-02-03T09:50:06.185Z,100349.98
2023-02-03T09:53:55.277Z,100333.18
2023-02-03T09:57:44.502Z,100316.04
2023-02-03T10:01:36.348Z,100290.64
2023-02-03T10:05:32.701Z,100289.95
2023-02-03T10:10:13.962Z,100266.22
2023-02-03T10:14:51.843Z,100249.13
2023-02-03T10:19:27.819Z,100215.58
2023-02-03T10:24:01.357Z,100201.56
2023-02-03T10:28:31.121Z,100185.66
2023-02-03T10:33:00.928Z,100169.86
2023-02-03T10:37:40.162Z,100148.73
2023-02-03T10:42:13.457Z,100141.34
2023-02-03T10:46:43.978Z,100116.80
2023-02-03T10:51:19.230Z,100099.77
2023-02-03T10:56:03.992Z,100088.51
2023-02-03T11:00:46.976Z,100068.42
2023-02-03T11:05:28.357Z,100056.10
2023-02-03T11:13:23.188Z,100034.20
2023-02-03T11:17:20.557Z,100022.04
2023-02-03T11:21:33.748Z,100009.45
2023-02-03T11:26:06.263Z,99990.20
2023-02-03T11:30:56.087Z,99968.52
2023-02-03T11:35:11.471Z,99959.60
2023-02-03T11:39:10.051Z,99949.34
2023-02-03T11:42:59.608Z,99944.09
2023-02-03T11:47:01.126Z,99947.55
2023-02-03T11:50:55.840Z,99939.61
2023-02-03T11:54:15.605Z,99926.51
2023-02-03T11:58:05.644Z,99918.92
2023-02-03T12:02:03.722Z,99915.48
2023-02-03T12:05:57.587Z,99920.89
2023-02-03T12:10:13.096Z,99910.91
2023-02-03T12:13:59.585Z,99910.23
2023-02-03T12:17:53.043Z,99906.14
2023-02-03T12:21:51.456Z,99899.41
2023-02-03T12:25:39.570Z,99900.44
2023-02-03T12:29:46.903Z,99892.86
2023-02-03T12:33:14.297Z,99872.85
2023-02-03T12:37:11.060Z,99861.25
2023-02-03T12:41:19.555Z,99867.92
2023-02-03T12:50:09.332Z,99857.91
2023-02-03T12:54:34.167Z,99870.16
2023-02-03T12:58:39.304Z,99872.08
2023-02-03T13:02:41.154Z,99873.35
2023-02-03T13:07:05.719Z,99873.65
2023-02-03T13:11:01.980Z,99867.93
2023-02-03T13:15:10.637Z,99858.40
2023-02-03T13:19:23.025Z,99860.77
2023-02-03T13:24:01.366Z,99857.37
2023-02-03T13:28:30.523Z,99859.86
2023-02-03T13:33:04.589Z,99878.34
